Latest Weather Observations for Mildura

IDV60801

Issued at 8:32 am EDT Wednesday 7 December 2016 (issued every 30 minutes, with the page automatically refreshed every 10 minutes)

About weather observations | Map of weather stations | Latest weather observations for VIC | Other Formats
Station Details ID: 076031 Name: MILDURA AIRPORT Lat: -34.24 Lon: 142.09 Height: 50.0 m
Data from the previous 72 hours. | See also: Recent months at Mildura
Date/Time
EDT
Temp
°C
App
Temp
°C
Dew
Point
°C
Rel
Hum
%
Delta-T
°C
Wind Press
QNH
hPa
Press
MSL
hPa
Rain since
9am
mm
Dir  Spd
km/h
Gust
km/h
Spd
kts
Gust
kts
07/08:30am 18.3 15.9 7.1 48 5.6 ENE 9 13 5 7 1016.1 1015.9 0.2
07/08:00am 16.6 14.3 5.9 49 5.2 E 7 9 4 5 1015.6 1015.4 0.2
07/07:30am 15.0 12.8 5.2 52 4.6 SE 6 7 3 4 1015.4 1015.2 0.2
07/07:00am 13.0 10.6 5.2 59 3.6 SSE 7 9 4 5 1014.8 1014.6 0.2
07/06:30am 10.7 8.2 4.6 66 2.7 SSW 7 9 4 5 1014.7 1014.5 0.2
07/06:00am 10.4 7.9 4.5 67 2.6 SSW 7 7 4 4 1014.3 1014.1 0.2
07/05:30am 10.5 9.0 4.9 68 2.5 SSW 2 7 1 4 1014.2 1014.0 0.2
07/05:00am 11.1 9.9 4.8 65 2.9 CALM 0 0 0 0 1013.9 1013.7 0.2
07/04:30am 11.6 9.2 4.3 61 3.3 SSW 6 9 3 5 1013.7 1013.5 0.2
07/04:00am 12.2 11.1 5.1 62 3.3 CALM 0 0 0 0 1013.8 1013.6 0.2
07/03:30am 13.2 11.0 5.1 58 3.8 N 6 11 3 6 1013.9 1013.7 0.2
07/03:00am 13.6 11.7 4.7 55 4.1 SSE 4 7 2 4 1014.1 1013.9 0.2
07/02:30am 14.9 12.3 4.3 49 4.9 S 7 9 4 5 1014.5 1014.3 0.2
07/02:00am 15.7 12.8 4.4 47 5.3 SSW 9 13 5 7 1014.9 1014.7 0.2
07/01:30am 16.0 12.7 4.4 46 5.4 SSW 11 17 6 9 1015.0 1014.8 0.2
07/01:00am 17.1 14.2 4.4 43 6.0 WSW 9 13 5 7 1014.9 1014.7 0.2
07/12:30am 16.5 13.7 5.2 47 5.4 W 9 9 5 5 1015.0 1014.8 0.2
07/12:00am 17.0 14.5 4.7 44 5.8 W 7 9 4 5 1015.0 1014.8 0.2
 
Date/Time
EDT
Temp
°C
App
Temp
°C
Dew
Point
°C
Rel
Hum
%
Delta-T
°C
Wind Press
QNH
hPa
Press
MSL
hPa
Rain since
9am
mm
Dir  Spd
km/h
Gust
km/h
Spd
kts
Gust
kts
06/11:30pm 17.8 15.4 4.4 41 6.4 W 6 7 3 4 1015.1 1014.9 0.2
06/11:00pm 19.5 16.8 3.6 35 7.5 WSW 7 11 4 6 1015.2 1015.0 0.2
06/10:30pm 20.3 17.2 3.5 33 8.0 SW 9 13 5 7 1015.3 1015.1 0.2
06/10:00pm 21.4 18.3 3.6 31 8.5 WSW 9 13 5 7 1015.0 1014.8 0.2
06/09:30pm 22.6 19.1 3.7 29 9.2 SW 11 17 6 9 1014.9 1014.7 0.2
06/09:00pm 23.4 19.5 3.4 27 9.7 SW 13 24 7 13 1014.7 1014.5 0.2
06/08:30pm 24.5 20.7 2.0 23 10.7 WSW 11 17 6 9 1014.3 1014.1 0.2
06/08:00pm 24.4 20.8 3.1 25 10.4 W 11 15 6 8 1013.7 1013.5 0.2
06/07:30pm 25.2 21.1 2.0 22 11.1 WNW 13 22 7 12 1013.6 1013.4 0.2
06/07:00pm 25.9 22.4 1.2 20 11.7 WSW 9 17 5 9 1013.1 1012.9 0.2
06/06:30pm 25.9 21.7 1.9 21 11.5 W 13 20 7 11 1013.1 1012.9 0.2
06/06:00pm 26.3 22.5 1.6 20 11.8 W 11 17 6 9 1013.1 1012.9 0.2
06/05:30pm 25.7 21.9 1.8 21 11.4 WSW 11 19 6 10 1013.2 1013.0 0.2
06/05:00pm 26.3 22.6 2.3 21 11.7 W 11 17 6 9 1013.5 1013.3 0.2
06/04:30pm 25.9 21.5 0.5 19 11.9 WNW 13 22 7 12 1013.5 1013.3 0.2
06/04:00pm 25.3 20.7 -0.7 18 11.9 WSW 13 20 7 11 1013.4 1013.2 0.2
06/03:30pm 25.8 22.1 2.5 22 11.3 WSW 11 19 6 10 1013.8 1013.6 0.2
06/03:00pm 25.8 22.6 4.9 26 10.6 WSW 11 19 6 10 1014.2 1014.0 0.2
06/02:30pm 24.2 20.4 6.0 31 9.3 NW 15 22 8 12 1014.3 1014.1 0.2
06/02:00pm 24.2 21.1 7.4 34 8.8 W 13 22 7 12 1014.6 1014.4 0.2
06/01:30pm 22.9 20.5 7.1 36 8.2 WSW 9 20 5 11 1015.2 1015.0 0.2
06/01:00pm 22.0 20.4 8.9 43 7.0 WSW 7 15 4 8 1015.4 1015.2 0.0
06/12:30pm 20.5 19.3 9.4 49 5.9 SE 6 9 3 5 1015.3 1015.1 0.0
06/12:00pm 18.6 17.8 8.3 51 5.3 S 2 9 1 5 1015.5 1015.3 0.0
06/11:30am 17.9 16.4 9.0 56 4.6 SSW 7 13 4 7 1016.1 1015.9 0.0
06/11:00am 17.3 15.3 8.7 57 4.4 SW 9 15 5 8 1016.1 1015.9 0.0
06/10:30am 16.9 15.3 8.8 59 4.2 SSW 7 9 4 5 1016.0 1015.8 0.0
06/10:00am 16.8 14.4 8.8 59 4.1 SSW 11 15 6 8 1015.8 1015.6 0.0
06/09:30am 16.3 13.9 8.8 61 3.9 SSW 11 13 6 7 1015.5 1015.3 0.0
06/09:00am 16.0 14.0 8.5 61 3.8 SSW 9 15 5 8 1015.7 1015.5 0.4
06/08:30am 16.1 13.7 8.6 61 3.8 SSW 11 17 6 9 1015.2 1015.0 0.4
06/08:00am 16.0 14.0 8.5 61 3.8 SW 9 15 5 8 1015.2 1015.0 0.4
06/07:30am 15.9 13.9 8.6 62 3.7 SW 9 13 5 7 1014.6 1014.4 0.4
06/07:00am 15.7 13.6 8.4 62 3.7 SW 9 13 5 7 1013.8 1013.6 0.4
06/06:30am 15.7 14.0 8.2 61 3.8 WSW 7 9 4 5 1013.5 1013.3 0.4
06/06:00am 15.9 14.3 8.2 60 3.9 SW 6 11 3 6 1012.9 1012.7 0.4
06/05:30am 16.2 14.1 8.2 59 4.1 SSW 9 13 5 7 1012.4 1012.2 0.4
06/05:00am 16.7 14.2 8.4 58 4.2 SSW 11 17 6 9 1012.2 1012.0 0.4
06/04:30am 16.9 14.8 8.3 57 4.4 SSW 9 11 5 6 1011.5 1011.3 0.4
06/04:00am 17.4 14.9 8.0 54 4.8 SSW 11 19 6 10 1011.2 1011.0 0.4
06/03:30am 17.8 14.8 7.5 51 5.2 SSW 13 19 7 10 1011.4 1011.2 0.4
06/03:00am 18.0 14.9 7.1 49 5.5 SSW 13 19 7 10 1011.6 1011.4 0.4
06/02:30am 18.2 15.8 7.0 48 5.6 SW 9 17 5 9 1011.5 1011.3 0.4
06/02:00am 18.7 17.3 9.5 55 4.9 SW 7 9 4 5 1011.7 1011.5 0.4
06/01:30am 18.6 18.8 14.7 78 2.3 W 7 11 4 6 1012.3 1012.1 0.4
06/01:00am 18.4 18.7 15.1 81 1.9 WNW 7 9 4 5 1012.1 1011.9 0.4
06/12:30am 18.7 19.1 15.4 81 1.9 N 7 11 4 6 1011.7 1011.5 0.4
06/12:00am 18.8 19.4 15.9 83 1.7 N 7 11 4 6 1012.4 1012.2 0.4
 
Date/Time
EDT
Temp
°C
App
Temp
°C
Dew
Point
°C
Rel
Hum
%
Delta-T
°C
Wind Press
QNH
hPa
Press
MSL
hPa
Rain since
9am
mm
Dir  Spd
km/h
Gust
km/h
Spd
kts
Gust
kts
05/11:30pm 19.4 19.6 15.7 79 2.2 NW 9 11 5 6 1012.6 1012.4 0.4
05/11:00pm 20.0 19.9 13.9 68 3.5 NNW 7 9 4 5 1012.2 1012.0 0.4
05/10:30pm 20.5 19.1 10.9 54 5.3 N 9 13 5 7 1012.2 1012.0 0.4
05/10:00pm 19.8 19.9 10.0 53 5.3 CALM 0 0 0 0 1012.2 1012.0 0.4
05/09:30pm 20.3 20.3 11.2 56 5.0 SW 2 7 1 4 1012.5 1012.3 0.4
05/09:00pm 20.9 21.7 12.6 59 4.7 CALM 0 0 0 0 1012.5 1012.3 0.4
05/08:30pm 21.4 20.7 11.4 53 5.6 WNW 6 9 3 5 1012.9 1012.7 0.4
05/08:00pm 22.0 20.8 10.2 47 6.4 NNW 7 9 4 5 1012.4 1012.2 0.4
05/07:30pm 22.1 21.8 11.5 51 5.9 N 4 9 2 5 1012.1 1011.9 0.4
05/07:00pm 22.6 22.7 10.1 45 6.8 CALM 0 0 0 0 1011.2 1011.0 0.4
05/06:30pm 22.4 21.2 10.2 46 6.7 SW 7 9 4 5 1011.6 1011.4 0.4
05/06:00pm 21.6 20.5 13.0 58 4.9 ENE 11 15 6 8 1010.5 1010.3 0.4
05/05:30pm 22.2 22.1 13.3 57 5.1 ENE 6 9 3 5 1011.5 1011.3 0.4
05/05:00pm 22.4 22.5 11.5 50 6.1 SSE 2 7 1 4 1012.1 1011.9 0.4
05/04:30pm 21.8 19.6 10.9 50 6.0 WSW 13 20 7 11 1012.6 1012.4 0.4
05/04:00pm 24.0 20.6 7.6 35 8.6 WSW 15 28 8 15 1012.4 1012.2 0.2
05/03:30pm 25.8 21.9 5.4 27 10.4 S 15 24 8 13 1011.1 1010.9 0.0
05/03:00pm 26.4 22.3 6.4 28 10.5 S 17 28 9 15 1011.0 1010.8 0.0
05/02:30pm 26.6 22.1 6.1 27 10.7 SSW 19 30 10 16 1010.9 1010.7 0.0
05/02:00pm 26.6 23.2 7.6 30 10.2 S 15 26 8 14 1011.4 1011.2 0.0
05/01:30pm 25.8 22.7 8.8 34 9.2 S 15 30 8 16 1011.3 1011.1 0.0
05/01:00pm 25.6 22.8 11.4 41 8.1 S 17 28 9 15 1011.4 1011.2 0.0
05/12:30pm 24.8 22.8 11.4 43 7.6 SSW 13 22 7 12 1011.4 1011.2 0.0
05/12:00pm 24.8 23.2 11.7 44 7.4 S 11 19 6 10 1011.8 1011.6 0.0
05/11:30am 23.7 21.9 12.0 48 6.6 SSW 13 22 7 12 1012.1 1011.9 0.0
05/11:00am 22.4 20.5 11.8 51 6.0 SW 13 22 7 12 1012.4 1012.2 0.0
05/10:30am 21.9 19.8 11.0 50 6.0 SSW 13 24 7 13 1012.3 1012.1 0.0
05/10:00am 21.1 17.9 11.4 54 5.4 SSW 19 30 10 16 1012.3 1012.1 0.0
05/09:30am 20.4 17.3 12.1 59 4.6 SSW 20 28 11 15 1012.3 1012.1 0.0
05/09:00am 19.6 16.3 12.8 65 3.8 SSW 22 33 12 18 1011.7 1011.5 0.0
05/08:30am 19.1 16.4 13.5 70 3.2 S 20 30 11 16 1011.1 1010.9 0.0
05/08:09am 18.5 16.0 14.0 75 2.6 SSW 20 32 11 17 1010.8 1010.6 0.0
05/08:00am 18.4 16.0 14.3 77 2.4 SSW 20 35 11 19 1010.6 1010.4 0.0
05/07:30am 18.6 16.7 15.1 80 2.0 SSW 19 30 10 16 1010.7 1010.5 0.0
05/07:15am 18.9 17.5 15.6 81 2.0 SSW 17 28 9 15 1010.3 1010.1 0.0
05/07:00am 19.0 18.1 15.9 82 1.8 SW 15 24 8 13 1010.1 1009.9 0.0
05/06:30am 19.7 19.3 16.2 80 2.1 SSW 13 19 7 10 1009.4 1009.2 0.0
05/06:00am 20.5 20.2 16.5 78 2.4 SSW 13 20 7 11 1008.9 1008.7 0.0
05/05:30am 21.5 20.7 16.0 71 3.3 SW 15 22 8 12 1008.7 1008.5 0.0
05/05:00am 21.8 21.5 15.4 67 3.8 SW 11 17 6 9 1008.3 1008.1 0.0
05/04:30am 21.7 21.7 15.3 67 3.8 WSW 9 13 5 7 1008.0 1007.8 0.0
05/04:00am 21.9 21.9 15.3 66 3.9 WSW 9 13 5 7 1007.7 1007.5 0.0
05/03:30am 21.9 22.0 15.5 67 3.8 WSW 9 13 5 7 1007.4 1007.2 0.0
05/03:00am 22.3 22.7 15.4 65 4.1 SW 7 13 4 7 1007.2 1007.0 0.0
05/02:30am 23.2 23.8 15.3 61 4.7 N 6 7 3 4 1006.8 1006.6 0.0
05/02:00am 23.0 23.2 15.8 64 4.4 NNE 9 13 5 7 1006.6 1006.4 0.0
05/01:30am 22.9 23.2 16.0 65 4.2 NNE 9 13 5 7 1006.5 1006.3 0.0
05/01:00am 22.6 22.6 16.2 67 3.9 NNE 11 13 6 7 1006.7 1006.5 0.0
05/12:30am 22.7 23.1 16.3 67 3.9 NNE 9 17 5 9 1006.8 1006.6 0.0
05/12:00am 22.6 23.3 16.2 67 3.9 N 7 9 4 5 1007.0 1006.8 0.0
 
Date/Time
EDT
Temp
°C
App
Temp
°C
Dew
Point
°C
Rel
Hum
%
Delta-T
°C
Wind Press
QNH
hPa
Press
MSL
hPa
Rain since
9am
mm
Dir  Spd
km/h
Gust
km/h
Spd
kts
Gust
kts
04/11:30pm 22.4 23.3 16.2 68 3.8 ENE 6 9 3 5 1006.7 1006.5 0.0
04/11:00pm 22.6 22.4 15.7 65 4.2 NE 11 17 6 9 1006.6 1006.4 0.0
04/10:30pm 23.4 22.7 15.5 61 4.8 E 13 19 7 10 1006.2 1006.0 0.0
04/10:00pm 23.5 21.7 15.5 60 4.8 ENE 19 26 10 14 1006.4 1006.2 0.0
04/09:30pm 23.4 21.7 15.7 62 4.6 ENE 19 32 10 17 1006.5 1006.3 0.0
04/09:00pm 23.5 21.8 15.8 62 4.7 E 19 28 10 15 1006.7 1006.5 0.0
04/08:30pm 23.3 22.6 16.4 65 4.2 E 15 20 8 11 1007.7 1007.5 0.0
04/08:00pm 23.6 22.0 15.9 62 4.7 SE 19 24 10 13 1007.3 1007.1 0.0
04/07:30pm 23.9 22.3 15.9 61 4.9 SSE 19 33 10 18 1007.3 1007.1 0.0
04/07:00pm 25.5 23.1 14.3 50 6.7 S 20 30 11 16 1007.5 1007.3 0.0
04/06:30pm 26.3 23.3 13.8 46 7.4 SSW 22 37 12 20 1007.1 1006.9 0.0
04/06:00pm 27.6 24.0 13.2 41 8.5 S 24 37 13 20 1005.9 1005.7 0.0
04/05:30pm 28.4 24.2 12.3 37 9.4 SSW 26 41 14 22 1006.2 1006.0 0.0
04/05:00pm 28.5 24.7 12.4 37 9.4 SSW 24 37 13 20 1006.3 1006.1 0.0
04/04:30pm 29.8 26.2 11.8 33 10.5 SSW 22 32 12 17 1006.2 1006.0 0.0
04/04:00pm 30.9 27.7 11.3 30 11.4 SW 19 37 10 20 1006.2 1006.0 0.0
04/03:30pm 33.1 32.1 11.0 26 12.9 SE 7 9 4 5 1005.7 1005.5 0.0
04/03:00pm 32.5 31.1 12.2 29 12.1 ESE 11 15 6 8 1005.8 1005.6 0.0
04/02:30pm 32.6 31.6 12.3 29 12.1 ESE 9 15 5 8 1006.7 1006.5 0.0
04/02:00pm 32.2 30.6 12.9 31 11.6 E 13 19 7 10 1007.0 1006.8 0.0
04/01:30pm 31.9 30.6 13.6 32 11.1 ESE 13 17 7 9 1007.5 1007.3 0.0
04/01:00pm 32.3 31.9 12.5 30 11.8 ESE 6 9 3 5 1007.8 1007.6 0.0
04/12:30pm 31.0 29.4 11.4 30 11.4 N 11 15 6 8 1008.5 1008.3 0.0
04/12:00pm 30.5 29.3 11.5 31 11.1 NNE 9 13 5 7 1009.0 1008.8 0.0
04/11:30am 30.1 28.9 11.6 32 10.8 N 9 13 5 7 1009.4 1009.2 0.0
04/11:00am 29.7 28.0 11.2 31 10.7 NNW 11 17 6 9 1009.7 1009.5 0.0
04/10:30am 29.2 26.6 10.8 32 10.5 WNW 15 20 8 11 1010.0 1009.8 0.0
04/10:00am 28.1 26.7 10.8 34 9.9 NNW 9 13 5 7 1009.5 1009.3 0.0
04/09:30am 27.6 26.4 11.6 37 9.2 N 9 13 5 7 1009.4 1009.2 0.0
04/09:00am 26.6 24.0 10.7 37 9.0 NNE 15 19 8 10 1009.3 1009.1 0.0

Other Formats:

Comma delimited format used in spreadsheet applications
http://www.bom.gov.au/fwo/IDV60801/IDV60801.94693.axf

JavaScript Object Notation format (JSON) in row-major order
http://www.bom.gov.au/fwo/IDV60801/IDV60801.94693.json